Portada
METAR-TAF:

METAR-TAF

Aeroports :

Aeroport Internacional de Pequín

Pequín, Xina

latitud: 39-56N, longitud: 116-17E, altitud: 55 m

Observació

L'informe es va fer fa 38 minuts, a les 21:00 UTC
Vent 6 kt del Sud-Est, variant entre Est i Sud/Sud-Est
Temperatura 26°C
Humitat 84%
Pressió 1003 hPa
Visibilitat: 7000 m

METAR: ZBAA 192100Z 13003MPS 090V160 7000 NSC 26/23 Q1003 NOSIG

Hora: 05:38 (21:38 UTC)

Pronòstic

L'informe es va fer fa 6 hores i 8 minuts, a les 15:30 UTC
Pronòstic vàlid del 19 a les 18 UTC al 20 a les 18 UTC
Vent 8 kt del Sud/Sud-Est
Visibilitat: 3500 m
boirina
Temporalment
l' 19 a les 19 UTC al 20 a les 01 UTC
Visibilitat: 2700 m
xàfecs de pluja, boirina

TAF: ZBAA 191530Z 1918/2018 16004MPS 3500 BR NSC TX30/2007Z TN22/1921Z TEMPO 1919/2001 2700 -SHRA BR

Observacions i pronòstics meteorològics de més de 4000 aeroports (METAR i TAF).

Les estacions disponibles són els punts grocs i vermells al mapa.

Posi el ratolí al punt desitjat per veure el nom de l'estació.

Feu clic per veure les observacions i els pronòstics meteorològics.

Per canviar el mapa: feu clic els botons verds amb una creu de color negre per apropar; al botó verd amb un guió per allunyar la imatge; o en les fletxes verdes per a mapes adjacents.


METAR-TAF: